createdAt,value
2023-02-06T00:00:52.359Z,95630.06
2023-02-06T00:03:40.895Z,95642.50
2023-02-06T00:06:24.244Z,95648.50
2023-02-06T00:09:07.955Z,95635.00
2023-02-06T00:11:51.254Z,95651.75
2023-02-06T00:14:35.923Z,95653.13
2023-02-06T00:17:19.015Z,95655.69
2023-02-06T00:20:02.405Z,95657.50
2023-02-06T00:22:45.780Z,95651.72
2023-02-06T00:25:28.996Z,95651.75
2023-02-06T00:28:12.261Z,95653.13
2023-02-06T00:30:59.112Z,95655.69
2023-02-06T00:33:45.418Z,95662.81
2023-02-06T00:36:28.543Z,95662.13
2023-02-06T00:39:11.724Z,95665.56
2023-02-06T00:41:55.853Z,95660.28
2023-02-06T00:44:38.947Z,95666.63
2023-02-06T00:47:23.386Z,95673.75
2023-02-06T00:50:07.392Z,95670.41
2023-02-06T00:52:50.770Z,95681.13
2023-02-06T00:55:34.045Z,95672.00
2023-02-06T00:58:19.730Z,95667.63
2023-02-06T01:01:05.651Z,95670.19
2023-02-06T01:03:52.937Z,95678.13
2023-02-06T01:06:36.031Z,95673.63
2023-02-06T01:09:22.566Z,95677.91
2023-02-06T01:12:06.247Z,95676.19
2023-02-06T01:14:52.086Z,95683.34
2023-02-06T01:17:37.793Z,95690.13
2023-02-06T01:20:23.951Z,95678.75
2023-02-06T01:23:07.144Z,95693.84
2023-02-06T01:25:50.265Z,95698.56
2023-02-06T01:28:33.480Z,95704.53
2023-02-06T01:31:20.396Z,95698.56
2023-02-06T01:34:06.161Z,95699.03
2023-02-06T01:36:50.624Z,95703.88
2023-02-06T01:39:33.652Z,95704.47
2023-02-06T01:42:16.885Z,95709.53
2023-02-06T01:45:28.580Z,95703.97
2023-02-06T01:48:16.428Z,95712.06
2023-02-06T01:51:01.527Z,95712.66
2023-02-06T01:53:50.737Z,95714.69
2023-02-06T01:56:38.086Z,95716.28
2023-02-06T01:59:21.948Z,95713.06
2023-02-06T02:02:05.377Z,95715.13
2023-02-06T02:04:49.856Z,95718.84
2023-02-06T02:07:37.397Z,95723.72
2023-02-06T02:10:22.315Z,95713.56
2023-02-06T02:13:05.559Z,95718.16
2023-02-06T02:16:00.814Z,95709.63
2023-02-06T02:19:00.966Z,95707.09
2023-02-06T02:22:32.636Z,95719.56
2023-02-06T02:25:58.339Z,95726.47
2023-02-06T02:29:12.484Z,95723.53
2023-02-06T02:32:31.116Z,95734.75
2023-02-06T02:35:45.349Z,95743.19
2023-02-06T02:38:40.737Z,95742.44
2023-02-06T02:41:33.818Z,95741.63
2023-02-06T02:44:26.423Z,95726.38
2023-02-06T02:47:14.648Z,95729.84
2023-02-06T02:50:02.565Z,95726.94
2023-02-06T02:52:55.102Z,95740.66
2023-02-06T02:55:38.450Z,95745.28
2023-02-06T02:58:26.686Z,95744.53
2023-02-06T03:01:15.112Z,95739.41
2023-02-06T03:04:04.860Z,95748.97
2023-02-06T03:07:09.043Z,95751.66
2023-02-06T03:10:06.724Z,95758.47
2023-02-06T03:12:53.877Z,95756.75
2023-02-06T03:15:51.379Z,95749.81
2023-02-06T03:18:44.105Z,95753.75
2023-02-06T03:21:29.196Z,95762.97
2023-02-06T03:24:17.121Z,95749.78
2023-02-06T03:27:04.864Z,95755.31
2023-02-06T03:29:53.328Z,95749.09
2023-02-06T03:32:41.544Z,95752.56
2023-02-06T03:35:30.959Z,95756.94
2023-02-06T03:38:15.212Z,95765.75
2023-02-06T03:41:02.397Z,95757.31
2023-02-06T03:43:49.788Z,95753.28
2023-02-06T03:46:35.447Z,95763.41
2023-02-06T03:49:20.947Z,95760.44
2023-02-06T03:52:07.625Z,95755.13
2023-02-06T03:54:54.760Z,95756.25
2023-02-06T03:57:39.238Z,95748.31
2023-02-06T04:00:24.709Z,95755.94
2023-02-06T04:03:09.511Z,95751.66
2023-02-06T04:05:52.913Z,95760.66
2023-02-06T04:08:35.934Z,95755.34
2023-02-06T04:11:21.387Z,95762.84
2023-02-06T04:14:04.466Z,95770.13
2023-02-06T04:16:48.930Z,95763.66
2023-02-06T04:19:34.614Z,95769.28
2023-02-06T04:22:18.113Z,95770.13
2023-02-06T04:25:01.450Z,95776.59
2023-02-06T04:27:47.751Z,95777.84
2023-02-06T04:30:31.132Z,95777.75
2023-02-06T04:33:16.921Z,95763.44
2023-02-06T04:35:59.973Z,95774.97
2023-02-06T04:38:43.058Z,95770.25
2023-02-06T04:41:26.312Z,95776.13
2023-02-06T04:44:10.981Z,95774.72
2023-02-06T04:46:54.055Z,95776.13
2023-02-06T04:49:38.524Z,95772.06
2023-02-06T04:52:21.634Z,95772.16
2023-02-06T04:55:08.362Z,95770.97
2023-02-06T04:57:52.527Z,95774.88
2023-02-06T05:00:37.348Z,95777.63
2023-02-06T05:03:23.786Z,95782.56
2023-02-06T05:06:08.775Z,95784.50
2023-02-06T05:08:52.134Z,95783.69
2023-02-06T05:11:37.203Z,95797.47
2023-02-06T05:14:20.248Z,95792.22
2023-02-06T05:17:08.479Z,95799.00
2023-02-06T05:19:56.809Z,95802.53
2023-02-06T05:22:46.560Z,95802.69
2023-02-06T05:25:31.043Z,95812.13
2023-02-06T05:28:19.718Z,95814.44
2023-02-06T05:31:03.809Z,95818.38
2023-02-06T05:33:48.951Z,95824.34
2023-02-06T05:36:33.077Z,95830.13
2023-02-06T05:39:17.601Z,95837.91
2023-02-06T05:42:00.712Z,95840.63
2023-02-06T05:44:44.547Z,95838.56
2023-02-06T05:47:27.708Z,95839.56
2023-02-06T05:50:15.298Z,95842.09
2023-02-06T05:52:58.397Z,95851.91
2023-02-06T05:55:43.158Z,95850.38
2023-02-06T05:58:28.314Z,95846.88
2023-02-06T06:01:15.171Z,95850.72
2023-02-06T06:03:58.325Z,95862.94
2023-02-06T06:06:42.025Z,95856.78
2023-02-06T06:09:25.334Z,95855.66
2023-02-06T06:12:09.898Z,95853.56
2023-02-06T06:14:53.219Z,95858.91
2023-02-06T06:17:36.345Z,95856.88
2023-02-06T06:20:27.960Z,95847.19
2023-02-06T06:23:10.985Z,95845.59
2023-02-06T06:25:54.320Z,95848.97
2023-02-06T06:28:39.943Z,95849.13
2023-02-06T06:31:23.888Z,95859.16
2023-02-06T06:34:07.253Z,95854.19
2023-02-06T06:36:50.394Z,95862.03
2023-02-06T06:39:33.941Z,95858.81
2023-02-06T06:42:19.487Z,95868.81
2023-02-06T06:45:04.006Z,95876.97
2023-02-06T06:47:47.050Z,95868.91
2023-02-06T06:50:30.163Z,95874.69
2023-02-06T06:53:13.610Z,95855.75
2023-02-06T06:55:57.720Z,95866.22
2023-02-06T06:58:41.042Z,95861.56
2023-02-06T07:01:31.781Z,95874.31
2023-02-06T07:04:15.202Z,95872.88
2023-02-06T07:07:01.201Z,95883.06
2023-02-06T07:09:44.545Z,95879.63
2023-02-06T07:12:27.904Z,95886.19
2023-02-06T07:15:14.780Z,95882.50
2023-02-06T07:17:59.290Z,95883.00
2023-02-06T07:20:42.294Z,95889.09
2023-02-06T07:23:25.635Z,95897.53
2023-02-06T07:26:09.329Z,95894.25
2023-02-06T07:28:53.112Z,95891.84
2023-02-06T07:31:38.857Z,95897.38
2023-02-06T07:34:23.535Z,95910.19
2023-02-06T07:37:08.609Z,95908.13
2023-02-06T07:39:51.645Z,95910.78
2023-02-06T07:42:34.787Z,95912.75
2023-02-06T07:45:21.761Z,95905.28
2023-02-06T07:48:05.179Z,95899.56
2023-02-06T07:50:49.677Z,95895.66
2023-02-06T07:53:34.986Z,95893.19
2023-02-06T07:56:21.551Z,95896.88
2023-02-06T07:59:06.417Z,95903.38
2023-02-06T08:01:49.522Z,95898.44
2023-02-06T08:04:35.358Z,95899.22
2023-02-06T08:07:19.970Z,95894.06
2023-02-06T08:10:04.879Z,95897.56
2023-02-06T08:12:48.203Z,95898.03
2023-02-06T08:15:31.314Z,95872.13
2023-02-06T08:18:14.704Z,95881.91
2023-02-06T08:21:02.365Z,95892.03
2023-02-06T08:23:49.667Z,95897.72
2023-02-06T08:26:33.201Z,95907.22
2023-02-06T08:29:16.250Z,95895.81
2023-02-06T08:31:59.336Z,95906.91
2023-02-06T08:34:42.766Z,95909.41
2023-02-06T08:37:25.933Z,95916.28
2023-02-06T08:40:14.169Z,95917.88
2023-02-06T08:42:58.634Z,95923.19
2023-02-06T08:45:41.657Z,95916.63
2023-02-06T08:48:24.782Z,95908.00
2023-02-06T08:51:09.372Z,95914.97
2023-02-06T08:53:52.448Z,95925.19
2023-02-06T08:56:41.303Z,95936.50
2023-02-06T08:59:24.760Z,95935.88
2023-02-06T09:02:08.701Z,95928.00
2023-02-06T09:04:51.856Z,95938.31
2023-02-06T09:07:37.557Z,95924.88
2023-02-06T09:10:28.038Z,95948.97
2023-02-06T09:13:13.476Z,95932.59
2023-02-06T09:15:56.722Z,95932.94
2023-02-06T09:18:40.578Z,95917.88
2023-02-06T09:21:27.609Z,95921.69
2023-02-06T09:24:11.646Z,95933.16
2023-02-06T09:26:59.720Z,95925.09
2023-02-06T09:29:44.595Z,95925.16
2023-02-06T09:32:27.663Z,95920.63
2023-02-06T09:35:10.888Z,95921.63
2023-02-06T09:37:53.969Z,95919.72
2023-02-06T09:40:38.511Z,95920.03
2023-02-06T09:43:22.794Z,95915.72
2023-02-06T09:46:15.999Z,95907.78
2023-02-06T09:49:03.655Z,95919.13
2023-02-06T09:52:14.978Z,95918.16
2023-02-06T09:55:08.699Z,95914.50
2023-02-06T09:58:02.167Z,95916.44
2023-02-06T10:00:50.770Z,95920.44
2023-02-06T10:04:03.091Z,95908.41
2023-02-06T10:06:55.303Z,95926.72
2023-02-06T10:09:43.033Z,95925.63
2023-02-06T10:12:33.728Z,95914.50
2023-02-06T10:15:33.900Z,95906.81
2023-02-06T10:18:23.158Z,95892.25
2023-02-06T10:21:26.206Z,95901.84
2023-02-06T10:24:14.869Z,95902.59
2023-02-06T10:27:03.153Z,95903.91
2023-02-06T10:29:49.131Z,95906.00
2023-02-06T10:32:50.237Z,95885.09
2023-02-06T10:35:49.476Z,95879.88
2023-02-06T10:38:58.259Z,95870.28
2023-02-06T10:41:51.605Z,95876.56
2023-02-06T10:44:52.974Z,95864.81
2023-02-06T10:47:50.596Z,95883.34
2023-02-06T10:50:39.402Z,95878.25
2023-02-06T10:53:27.784Z,95875.25
2023-02-06T10:56:15.043Z,95873.81
2023-02-06T10:59:01.401Z,95860.69
2023-02-06T11:01:48.591Z,95851.69
2023-02-06T11:04:37.144Z,95846.66
2023-02-06T11:07:27.096Z,95864.44
2023-02-06T11:10:15.727Z,95862.38
2023-02-06T11:13:06.986Z,95860.00
2023-02-06T11:15:57.517Z,95860.09
2023-02-06T11:18:43.590Z,95869.16
2023-02-06T11:21:54.993Z,95874.44
2023-02-06T11:24:42.289Z,95872.47
2023-02-06T11:27:27.818Z,95877.28
2023-02-06T11:30:30.769Z,95872.97
2023-02-06T11:33:22.552Z,95869.97
2023-02-06T11:36:08.587Z,95856.78
2023-02-06T11:39:00.946Z,95869.53
2023-02-06T11:42:00.136Z,95864.88
2023-02-06T11:44:46.239Z,95863.44
2023-02-06T11:47:33.191Z,95859.03
2023-02-06T11:50:24.984Z,95855.56
2023-02-06T11:53:12.383Z,95855.63
2023-02-06T11:56:18.221Z,95845.59
2023-02-06T11:59:07.100Z,95847.72
2023-02-06T12:01:53.380Z,95852.00
2023-02-06T12:04:40.801Z,95852.41
2023-02-06T12:07:31.144Z,95850.16
2023-02-06T12:10:16.327Z,95848.41
2023-02-06T12:13:10.701Z,95861.22
2023-02-06T12:15:57.817Z,95864.78
2023-02-06T12:18:46.250Z,95860.78
2023-02-06T12:21:45.803Z,95865.16
2023-02-06T12:24:32.759Z,95856.72
2023-02-06T12:27:22.199Z,95867.28
2023-02-06T12:30:24.662Z,95870.22
2023-02-06T12:33:23.042Z,95870.53
2023-02-06T12:36:12.501Z,95884.72
2023-02-06T12:39:01.214Z,95872.59
2023-02-06T12:42:04.316Z,95881.03
2023-02-06T12:44:52.654Z,95868.28
2023-02-06T12:47:40.823Z,95881.81
2023-02-06T12:50:28.423Z,95870.09
2023-02-06T12:53:17.818Z,95876.88
2023-02-06T12:56:10.410Z,95890.56
2023-02-06T12:59:03.664Z,95887.41
2023-02-06T13:01:55.570Z,95883.22
2023-02-06T13:04:39.167Z,95888.88
2023-02-06T13:07:26.425Z,95886.81
2023-02-06T13:10:18.009Z,95893.63
2023-02-06T13:13:03.255Z,95891.19
2023-02-06T13:15:55.030Z,95896.63
2023-02-06T13:18:54.217Z,95896.75
2023-02-06T13:21:37.573Z,95905.31
2023-02-06T13:24:22.000Z,95905.09
2023-02-06T13:27:13.722Z,95914.06
2023-02-06T13:30:19.482Z,95910.16
2023-02-06T13:33:15.199Z,95905.66
2023-02-06T13:36:00.296Z,95912.78
2023-02-06T13:38:43.792Z,95912.78
2023-02-06T13:41:31.871Z,95915.78
2023-02-06T13:44:20.063Z,95913.69
2023-02-06T13:47:34.946Z,95918.94
2023-02-06T13:50:40.776Z,95916.13
2023-02-06T13:53:44.341Z,95912.97
2023-02-06T13:56:43.589Z,95914.63
2023-02-06T13:59:30.929Z,95914.09
2023-02-06T14:02:17.936Z,95923.00
2023-02-06T14:05:04.622Z,95928.91
2023-02-06T14:08:09.640Z,95935.38
2023-02-06T14:11:19.307Z,95938.06
2023-02-06T14:14:31.822Z,95935.09
2023-02-06T14:17:30.125Z,95930.78
2023-02-06T14:20:31.818Z,95938.31
2023-02-06T14:23:26.774Z,95943.38
2023-02-06T14:26:26.119Z,95950.53
2023-02-06T14:29:20.538Z,95955.28
2023-02-06T14:32:22.920Z,95955.19
2023-02-06T14:35:33.497Z,95953.25
2023-02-06T14:38:41.251Z,95939.56
2023-02-06T14:41:28.405Z,95954.41
2023-02-06T14:44:17.727Z,95951.94
2023-02-06T14:47:03.404Z,95961.34
2023-02-06T14:49:47.883Z,95965.09
2023-02-06T14:52:33.474Z,95967.00
2023-02-06T14:55:30.726Z,95963.66
2023-02-06T14:58:22.987Z,95956.69
2023-02-06T15:01:16.121Z,95974.91
2023-02-06T15:04:11.229Z,95976.41
2023-02-06T15:06:57.325Z,95969.19
2023-02-06T15:09:46.572Z,95971.53
2023-02-06T15:12:32.230Z,95976.91
2023-02-06T15:15:18.744Z,95976.13
2023-02-06T15:18:04.775Z,95984.00
2023-02-06T15:20:56.321Z,95985.44
2023-02-06T15:23:51.600Z,95980.38
2023-02-06T15:26:44.222Z,95994.25
2023-02-06T15:29:28.902Z,96001.19
2023-02-06T15:32:24.705Z,96008.38
2023-02-06T15:35:21.255Z,96011.28
2023-02-06T15:38:08.483Z,96021.09
2023-02-06T15:40:59.446Z,96023.41
2023-02-06T15:43:46.970Z,96025.47
2023-02-06T15:46:32.118Z,96028.84
2023-02-06T15:49:19.994Z,96028.94
2023-02-06T15:52:03.239Z,96026.84
2023-02-06T15:54:58.963Z,96039.16
2023-02-06T15:57:45.073Z,96048.63
2023-02-06T16:00:33.837Z,96047.72
2023-02-06T16:03:19.954Z,96050.94
2023-02-06T16:06:11.803Z,96046.66
2023-02-06T16:09:00.352Z,96046.09
2023-02-06T16:11:53.472Z,96049.09
2023-02-06T16:14:39.136Z,96039.81
2023-02-06T16:17:33.810Z,96055.34
2023-02-06T16:20:42.835Z,96075.78
2023-02-06T16:23:29.014Z,96077.53
2023-02-06T16:26:17.886Z,96088.06
2023-02-06T16:29:06.275Z,96090.94
2023-02-06T16:32:00.198Z,96085.84
2023-02-06T16:34:45.829Z,96086.75
2023-02-06T16:37:32.123Z,96092.44
2023-02-06T16:40:17.030Z,96083.22
2023-02-06T16:43:00.063Z,96093.94
2023-02-06T16:45:43.750Z,96093.25
2023-02-06T16:48:26.901Z,96102.09
2023-02-06T16:51:15.854Z,96103.63
2023-02-06T16:53:59.670Z,96101.66
2023-02-06T16:56:43.968Z,96105.84
2023-02-06T16:59:27.342Z,96119.81
2023-02-06T17:02:13.629Z,96126.63
2023-02-06T17:04:57.848Z,96121.19
2023-02-06T17:07:43.629Z,96122.84
2023-02-06T17:10:29.217Z,96124.59
2023-02-06T17:13:17.902Z,96135.09
2023-02-06T17:16:02.574Z,96128.94
2023-02-06T17:18:45.904Z,96139.28
2023-02-06T17:21:32.743Z,96140.75
2023-02-06T17:24:17.346Z,96143.25
2023-02-06T17:27:06.592Z,96147.06
2023-02-06T17:29:51.249Z,96139.22
2023-02-06T17:32:34.379Z,96149.88
2023-02-06T17:35:19.310Z,96147.22
2023-02-06T17:38:08.881Z,96158.47
2023-02-06T17:40:59.727Z,96157.56
2023-02-06T17:43:43.363Z,96160.09
2023-02-06T17:46:26.805Z,96151.56
2023-02-06T17:49:11.088Z,96146.94
2023-02-06T17:51:55.889Z,96150.63
2023-02-06T17:54:39.242Z,96155.72
2023-02-06T17:57:23.759Z,96152.94
2023-02-06T18:00:10.254Z,96161.72
2023-02-06T18:02:57.144Z,96163.09
2023-02-06T18:05:41.665Z,96154.88
2023-02-06T18:08:24.823Z,96156.13
2023-02-06T18:11:12.570Z,96156.63
2023-02-06T18:13:59.116Z,96151.69
2023-02-06T18:16:46.776Z,96154.91
2023-02-06T18:19:32.125Z,96151.34
2023-02-06T18:22:18.508Z,96144.03
2023-02-06T18:25:05.615Z,96160.03
2023-02-06T18:27:48.811Z,96145.78
2023-02-06T18:30:37.823Z,96156.69
2023-02-06T18:33:23.670Z,96146.94
2023-02-06T18:36:07.759Z,96156.69
2023-02-06T18:38:51.887Z,96164.66
2023-02-06T18:41:54.742Z,96158.97
2023-02-06T18:44:42.018Z,96161.06
2023-02-06T18:47:26.519Z,96171.25
2023-02-06T18:50:10.223Z,96175.72
2023-02-06T18:52:53.503Z,96166.16
2023-02-06T18:55:37.452Z,96162.38
2023-02-06T18:58:23.021Z,96170.25
2023-02-06T19:01:16.650Z,96161.00
2023-02-06T19:04:01.297Z,96172.81
2023-02-06T19:06:46.653Z,96183.19
2023-02-06T19:09:32.196Z,96187.13
2023-02-06T19:12:16.608Z,96185.03
2023-02-06T19:15:01.190Z,96169.84
2023-02-06T19:17:45.132Z,96182.00
2023-02-06T19:20:30.291Z,96181.13
2023-02-06T19:23:13.583Z,96172.81
2023-02-06T19:25:56.906Z,96173.03
2023-02-06T19:28:41.430Z,96172.81
2023-02-06T19:31:24.972Z,96184.72
2023-02-06T19:34:08.529Z,96180.25
2023-02-06T19:36:57.057Z,96182.81
2023-02-06T19:39:50.454Z,96186.47
2023-02-06T19:42:34.153Z,96184.81
2023-02-06T19:45:18.141Z,96190.88
2023-02-06T19:48:01.199Z,96185.06
2023-02-06T19:50:47.221Z,96186.72
2023-02-06T19:53:34.331Z,96180.91
2023-02-06T19:56:25.363Z,96187.41
2023-02-06T19:59:18.265Z,96184.31
2023-02-06T20:02:03.480Z,96171.19
2023-02-06T20:04:47.612Z,96187.16
2023-02-06T20:07:31.858Z,96189.91
2023-02-06T20:10:17.784Z,96183.63
2023-02-06T20:13:00.890Z,96178.81
2023-02-06T20:15:46.924Z,96192.25
2023-02-06T20:18:31.924Z,96183.28
2023-02-06T20:21:24.229Z,96191.28
2023-02-06T20:24:14.109Z,96187.47
2023-02-06T20:27:02.842Z,96176.75
2023-02-06T20:29:47.452Z,96179.88
2023-02-06T20:32:31.929Z,96183.47
2023-02-06T20:35:15.006Z,96184.88
2023-02-06T20:38:00.397Z,96191.44
2023-02-06T20:40:51.120Z,96180.25
2023-02-06T20:43:37.097Z,96191.66
2023-02-06T20:46:21.621Z,96188.06
2023-02-06T20:49:10.800Z,96192.41
2023-02-06T20:51:54.230Z,96190.78
2023-02-06T20:54:38.674Z,96180.59
2023-02-06T20:57:23.085Z,96187.16
2023-02-06T21:00:08.882Z,96186.94
2023-02-06T21:02:53.181Z,96190.88
2023-02-06T21:05:36.501Z,96186.75
2023-02-06T21:08:22.494Z,96186.56
2023-02-06T21:11:06.132Z,96188.00
2023-02-06T21:13:49.334Z,96192.41
2023-02-06T21:16:35.214Z,96188.06
2023-02-06T21:19:22.101Z,96183.66
2023-02-06T21:22:09.124Z,96162.13
2023-02-06T21:24:52.329Z,96185.91
2023-02-06T21:27:35.969Z,96176.53
2023-02-06T21:30:19.369Z,96179.56
2023-02-06T21:33:04.088Z,96180.25
2023-02-06T21:35:52.484Z,96179.44
2023-02-06T21:38:36.121Z,96185.09
2023-02-06T21:41:20.415Z,96184.66
2023-02-06T21:44:06.286Z,96194.59
2023-02-06T21:46:49.365Z,96193.66
2023-02-06T21:49:34.785Z,96189.41
2023-02-06T21:52:17.956Z,96195.16
2023-02-06T21:55:01.034Z,96199.13
2023-02-06T21:57:46.629Z,96187.38
2023-02-06T22:00:32.452Z,96196.44
2023-02-06T22:03:16.212Z,96202.47
2023-02-06T22:06:08.825Z,96204.06
2023-02-06T22:08:53.752Z,96207.22
2023-02-06T22:11:40.364Z,96211.84
2023-02-06T22:14:23.382Z,96219.38
2023-02-06T22:17:06.392Z,96216.88
2023-02-06T22:19:53.014Z,96213.28
2023-02-06T22:22:42.008Z,96211.84
2023-02-06T22:25:33.814Z,96217.75
2023-02-06T22:28:16.899Z,96218.44
2023-02-06T22:31:09.480Z,96202.22
2023-02-06T22:33:52.997Z,96211.44
2023-02-06T22:36:36.071Z,96214.94
2023-02-06T22:39:23.308Z,96216.72
2023-02-06T22:42:08.154Z,96223.00
2023-02-06T22:44:51.884Z,96222.41
2023-02-06T22:47:35.324Z,96216.53
2023-02-06T22:50:18.632Z,96216.53
2023-02-06T22:53:18.734Z,96212.00
2023-02-06T22:56:25.238Z,96218.34
2023-02-06T22:59:11.525Z,96216.06
2023-02-06T23:01:56.475Z,96220.19
2023-02-06T23:04:48.284Z,96218.84
2023-02-06T23:07:31.446Z,96220.69
2023-02-06T23:10:14.549Z,96223.00
2023-02-06T23:12:59.046Z,96216.06
2023-02-06T23:15:42.690Z,96220.50
2023-02-06T23:18:27.600Z,96219.53
2023-02-06T23:21:15.155Z,96218.78
2023-02-06T23:23:59.841Z,96229.31
2023-02-06T23:26:44.720Z,96224.44
2023-02-06T23:29:29.590Z,96226.97
2023-02-06T23:32:12.742Z,96219.59
2023-02-06T23:34:57.599Z,96226.78
2023-02-06T23:37:40.762Z,96227.13
2023-02-06T23:40:23.924Z,96221.72
2023-02-06T23:43:10.449Z,96226.06
2023-02-06T23:45:54.878Z,96217.75
2023-02-06T23:48:38.856Z,96217.63
2023-02-06T23:51:23.069Z,96214.97
2023-02-06T23:54:06.994Z,96228.41
2023-02-06T23:56:50.079Z,96230.56
2023-02-06T23:59:33.140Z,96225.53
